Time;durP1;ratioP1;P1;durP2;ratioP2;P2;SDS_P1;SDS_P2;PMS_P1;PMS_P2;Temp;Humidity;BMP_temperature;BMP_pressure;BME280_temperature;BME280_humidity;BME280_pressure;Samples;Min_cycle;Max_cycle;Signal;HPM_P1;HPM_P2
2022/08/30 00:01:05;;;;;;;2.33;2.23;;;15.50;99.90;;;;;;5206022;28;20477;-47
2022/08/30 00:03:44;;;;;;;2.80;2.70;;;15.40;99.90;;;;;;5222135;28;20976;-46
2022/08/30 00:06:16;;;;;;;2.57;2.40;;;15.40;99.90;;;;;;5209622;28;20440;-46
2022/08/30 00:08:48;;;;;;;2.90;2.70;;;15.40;99.90;;;;;;5228434;28;20444;-47
2022/08/30 00:11:26;;;;;;;2.70;2.60;;;15.40;99.90;;;;;;5190407;28;20482;-47
2022/08/30 00:13:57;;;;;;;3.30;3.07;;;15.40;99.90;;;;;;5208362;28;20448;-46
2022/08/30 00:16:27;;;;;;;2.60;2.50;;;15.40;99.90;;;;;;5236208;28;20453;-47
2022/08/30 00:18:58;;;;;;;3.30;3.10;;;15.30;99.90;;;;;;5194341;28;20202;-47
2022/08/30 00:21:28;;;;;;;5.30;3.60;;;15.30;99.90;;;;;;5217193;28;20203;-47
2022/08/30 00:23:59;;;;;;;3.03;2.93;;;15.30;99.90;;;;;;5234498;28;20182;-47
2022/08/30 00:26:29;;;;;;;3.87;3.67;;;15.20;99.90;;;;;;5196268;28;20187;-45
2022/08/30 00:29:00;;;;;;;3.70;3.50;;;15.20;99.90;;;;;;5213912;28;20188;-46
2022/08/30 00:31:31;;;;;;;2.87;2.77;;;15.20;99.90;;;;;;5214978;28;20221;-45
2022/08/30 00:34:01;;;;;;;2.83;2.73;;;15.30;99.90;;;;;;5207063;28;20216;-46
2022/08/30 00:36:32;;;;;;;3.23;3.03;;;15.20;99.90;;;;;;5223574;28;20275;-46
2022/08/30 00:39:04;;;;;;;2.73;2.23;;;15.30;99.90;;;;;;5223313;28;20348;-46
2022/08/30 00:41:35;;;;;;;2.83;2.73;;;15.30;99.90;;;;;;5217913;28;20209;-46
2022/08/30 00:44:07;;;;;;;3.60;3.40;;;15.20;99.90;;;;;;5222093;28;20544;-45
2022/08/30 00:46:37;;;;;;;3.20;3.00;;;15.30;99.90;;;;;;5204563;28;20437;-45
2022/08/30 00:49:11;;;;;;;2.50;2.40;;;15.30;99.90;;;;;;5228191;28;20494;-45
2022/08/30 00:51:42;;;;;;;3.13;3.00;;;15.40;99.90;;;;;;5225150;28;20219;-46
2022/08/30 00:54:13;;;;;;;3.60;2.53;;;15.30;99.90;;;;;;5211071;28;20459;-46
2022/08/30 00:56:45;;;;;;;2.63;2.53;;;15.30;99.90;;;;;;5219657;28;20659;-46
2022/08/30 00:59:17;;;;;;;3.37;3.27;;;15.30;99.90;;;;;;5216787;28;20513;-45
2022/08/30 01:01:47;;;;;;;3.67;3.47;;;15.30;99.90;;;;;;5226905;28;20456;-45
2022/08/30 01:04:20;;;;;;;3.10;3.00;;;15.30;99.90;;;;;;5225020;28;20832;-51
2022/08/30 01:06:52;;;;;;;4.70;3.30;;;15.20;99.90;;;;;;5225508;28;20530;-51
2022/08/30 01:09:23;;;;;;;3.53;3.30;;;15.30;99.90;;;;;;5225327;28;20414;-51
2022/08/30 01:11:53;;;;;;;4.10;3.83;;;15.20;99.90;;;;;;5220983;28;20937;-52
2022/08/30 01:14:25;;;;;;;3.50;3.30;;;15.20;99.90;;;;;;5232825;28;20727;-51
2022/08/30 01:16:56;;;;;;;3.00;2.80;;;15.20;99.90;;;;;;5216206;28;20228;-50
2022/08/30 01:19:42;;;;;;;3.87;3.60;;;15.10;99.90;;;;;;5225090;28;20433;-50
2022/08/30 01:22:38;;;;;;;4.43;4.13;;;15.10;99.90;;;;;;5218128;28;20454;-50
2022/08/30 01:25:10;;;;;;;8.87;4.07;;;15.00;99.90;;;;;;5220918;28;20426;-52
2022/08/30 01:27:44;;;;;;;4.03;3.83;;;15.00;99.90;;;;;;5205311;28;20938;-51
2022/08/30 01:30:15;;;;;;;4.83;4.03;;;15.00;99.90;;;;;;5220079;28;20441;-49
2022/08/30 01:32:46;;;;;;;4.20;3.90;;;14.90;99.90;;;;;;5213624;28;20761;-52
2022/08/30 01:35:18;;;;;;;4.70;4.43;;;14.90;99.90;;;;;;5206573;28;20195;-51
2022/08/30 01:37:48;;;;;;;3.93;3.63;;;14.90;99.90;;;;;;5207544;28;20504;-53
2022/08/30 01:40:19;;;;;;;4.50;4.20;;;14.80;99.90;;;;;;5212788;28;20484;-52
2022/08/30 01:42:50;;;;;;;6.63;4.23;;;14.80;99.90;;;;;;5209788;28;20175;-53
2022/08/30 01:45:21;;;;;;;4.00;3.70;;;14.80;99.90;;;;;;5221986;28;20708;-49
2022/08/30 01:47:51;;;;;;;3.90;3.70;;;14.80;99.90;;;;;;5216971;28;20190;-51
2022/08/30 01:50:22;;;;;;;4.80;4.30;;;14.80;99.90;;;;;;5227392;28;20542;-52
2022/08/30 01:52:52;;;;;;;4.17;3.87;;;14.80;99.90;;;;;;5224803;28;20282;-52
2022/08/30 01:55:23;;;;;;;4.13;3.93;;;14.80;99.90;;;;;;5208156;28;20214;-51
2022/08/30 01:57:54;;;;;;;4.50;4.13;;;14.80;99.90;;;;;;5225236;28;20221;-51
2022/08/30 02:00:24;;;;;;;4.70;4.43;;;14.80;99.90;;;;;;5214263;28;20195;-51
2022/08/30 02:02:56;;;;;;;5.40;4.90;;;14.80;99.90;;;;;;5222386;28;20565;-52
2022/08/30 02:05:27;;;;;;;6.00;5.40;;;14.80;99.90;;;;;;5215010;28;20677;-52
2022/08/30 02:07:58;;;;;;;5.40;4.90;;;14.80;99.90;;;;;;5191801;28;20434;-51
2022/08/30 02:10:29;;;;;;;4.73;4.43;;;14.80;99.90;;;;;;5211576;28;20233;-50
2022/08/30 02:13:00;;;;;;;4.90;4.57;;;14.80;99.90;;;;;;5236568;28;20610;-52
2022/08/30 02:15:31;;;;;;;4.90;4.60;;;14.80;99.90;;;;;;5234741;28;20750;-51
2022/08/30 02:18:02;;;;;;;5.10;4.80;;;14.80;99.90;;;;;;5211175;28;20468;-52
2022/08/30 02:20:32;;;;;;;5.73;5.27;;;14.80;99.90;;;;;;5227609;28;20209;-50
2022/08/30 02:23:03;;;;;;;4.97;4.60;;;14.80;99.90;;;;;;5224620;28;20187;-50
2022/08/30 02:25:33;;;;;;;4.70;4.40;;;14.80;99.90;;;;;;5220086;28;20671;-52
2022/08/30 02:28:04;;;;;;;4.50;4.30;;;14.80;99.90;;;;;;5214134;28;20678;-52
2022/08/30 02:30:35;;;;;;;5.93;5.43;;;14.80;99.90;;;;;;5218658;28;20235;-51
2022/08/30 02:33:06;;;;;;;5.10;4.80;;;14.80;99.90;;;;;;5212962;28;20519;-51
2022/08/30 02:35:37;;;;;;;5.73;5.13;;;14.70;99.90;;;;;;5236449;28;20618;-51
2022/08/30 02:38:07;;;;;;;5.20;4.80;;;14.80;99.90;;;;;;5215862;28;20293;-50
2022/08/30 02:40:38;;;;;;;5.50;5.10;;;14.80;99.90;;;;;;5215768;28;20191;-50
2022/08/30 02:43:09;;;;;;;5.57;5.13;;;14.70;99.90;;;;;;5206273;28;20179;-52
2022/08/30 02:45:40;;;;;;;5.70;5.20;;;14.70;99.90;;;;;;5202170;28;20175;-52
2022/08/30 02:48:10;;;;;;;5.40;4.90;;;14.70;99.90;;;;;;5217051;28;20564;-51
2022/08/30 02:50:43;;;;;;;5.10;4.70;;;14.70;99.90;;;;;;5208989;28;20628;-50
2022/08/30 02:53:14;;;;;;;5.13;4.83;;;14.60;99.90;;;;;;5211404;28;20189;-52
2022/08/30 02:55:46;;;;;;;5.40;4.90;;;14.60;99.90;;;;;;5217841;28;20441;-51
2022/08/30 02:58:16;;;;;;;6.63;6.10;;;14.60;99.90;;;;;;5212547;28;20180;-50
2022/08/30 03:00:47;;;;;;;7.23;6.20;;;14.60;99.90;;;;;;5221128;28;20445;-52
2022/08/30 03:03:17;;;;;;;5.83;5.33;;;14.60;99.90;;;;;;5217739;28;20593;-51
2022/08/30 03:05:48;;;;;;;5.60;5.20;;;14.50;99.90;;;;;;5237653;28;20529;-52
2022/08/30 03:08:19;;;;;;;5.57;5.17;;;14.50;99.90;;;;;;5204397;28;20607;-52
2022/08/30 03:10:49;;;;;;;6.07;5.53;;;14.50;99.90;;;;;;5206132;28;20200;-50
2022/08/30 03:13:20;;;;;;;5.53;5.17;;;14.50;99.90;;;;;;5206426;28;20185;-52
2022/08/30 03:15:51;;;;;;;6.27;5.70;;;14.50;99.90;;;;;;5222710;28;20186;-50
2022/08/30 03:18:23;;;;;;;6.63;6.00;;;14.40;99.90;;;;;;5207521;28;20253;-50
2022/08/30 03:20:53;;;;;;;6.47;5.83;;;14.40;99.90;;;;;;5208212;28;20211;-52
2022/08/30 03:23:24;;;;;;;6.93;6.23;;;14.40;99.90;;;;;;5220355;28;20419;-49
2022/08/30 03:25:56;;;;;;;6.07;5.53;;;14.40;99.90;;;;;;5204837;28;20205;-51
2022/08/30 03:28:26;;;;;;;6.77;6.17;;;14.40;99.90;;;;;;5208323;28;20237;-51
2022/08/30 03:30:57;;;;;;;7.43;6.93;;;14.40;99.90;;;;;;5216502;28;20583;-52
2022/08/30 03:33:27;;;;;;;7.40;6.70;;;14.30;99.90;;;;;;5219719;28;20194;-49
2022/08/30 03:35:58;;;;;;;5.30;4.90;;;14.30;99.90;;;;;;5214921;28;20187;-52
2022/08/30 03:38:29;;;;;;;6.20;5.70;;;14.30;99.90;;;;;;5209442;28;20190;-51
2022/08/30 03:41:00;;;;;;;4.90;4.60;;;14.30;99.90;;;;;;5206586;28;20212;-52
2022/08/30 03:43:34;;;;;;;5.50;5.10;;;14.30;99.90;;;;;;5221330;28;20480;-52
2022/08/30 03:46:06;;;;;;;5.90;5.60;;;14.30;99.90;;;;;;5209609;28;20268;-52
2022/08/30 03:48:37;;;;;;;7.10;6.50;;;14.30;99.90;;;;;;5209662;28;20974;-52
2022/08/30 03:51:07;;;;;;;6.50;6.00;;;14.30;99.90;;;;;;5259976;22;20491;-47
2022/08/30 03:53:38;;;;;;;6.50;6.10;;;14.30;99.90;;;;;;5277957;28;20185;-47
2022/08/30 03:56:09;;;;;;;6.40;5.80;;;14.30;99.90;;;;;;5279143;28;20213;-48
2022/08/30 03:58:39;;;;;;;6.50;5.90;;;14.30;99.90;;;;;;5257036;28;20267;-48
2022/08/30 04:01:10;;;;;;;6.60;6.10;;;14.40;99.90;;;;;;5264327;28;20198;-48
2022/08/30 04:03:41;;;;;;;7.97;5.73;;;14.30;99.90;;;;;;5251601;28;20170;-50
2022/08/30 04:06:12;;;;;;;6.03;5.50;;;14.40;99.90;;;;;;5270389;28;20187;-47
2022/08/30 04:08:44;;;;;;;5.43;5.13;;;14.40;99.90;;;;;;5270486;28;20196;-49
2022/08/30 04:11:15;;;;;;;5.53;5.23;;;14.30;99.90;;;;;;5268598;28;20545;-48
2022/08/30 04:13:48;;;;;;;6.93;5.43;;;14.40;99.90;;;;;;5269191;28;20500;-47
2022/08/30 04:16:19;;;;;;;5.70;5.30;;;14.40;99.90;;;;;;5264564;28;20212;-48
2022/08/30 04:18:49;;;;;;;4.87;4.47;;;14.40;99.90;;;;;;5253609;28;20420;-47
2022/08/30 04:21:20;;;;;;;6.67;5.60;;;14.40;99.90;;;;;;5271285;28;20688;-46
2022/08/30 04:23:51;;;;;;;5.50;5.10;;;14.40;99.90;;;;;;5258355;28;20193;-47
2022/08/30 04:26:21;;;;;;;6.00;5.50;;;14.40;99.90;;;;;;5255326;28;20213;-48
2022/08/30 04:28:53;;;;;;;6.10;5.70;;;14.40;99.90;;;;;;5267266;28;20182;-46
2022/08/30 04:31:26;;;;;;;5.43;5.03;;;14.40;99.90;;;;;;5268167;28;20262;-48
2022/08/30 04:33:56;;;;;;;5.93;5.43;;;14.40;99.90;;;;;;5266736;28;20775;-49
2022/08/30 04:36:27;;;;;;;5.50;5.10;;;14.40;99.90;;;;;;5269540;28;20458;-47
2022/08/30 04:38:57;;;;;;;6.00;5.60;;;14.40;99.90;;;;;;5268920;28;20181;-46
2022/08/30 04:41:28;;;;;;;6.67;6.20;;;14.50;99.90;;;;;;5270253;28;20201;-48
2022/08/30 04:44:02;;;;;;;5.93;5.53;;;14.50;99.90;;;;;;5279757;28;20182;-47
2022/08/30 04:46:34;;;;;;;8.07;6.63;;;14.50;99.90;;;;;;5263765;28;20186;-48
2022/08/30 04:49:05;;;;;;;7.17;6.40;;;14.60;99.90;;;;;;5256095;28;20420;-49
2022/08/30 04:51:36;;;;;;;5.60;5.30;;;14.50;99.90;;;;;;5274885;28;20501;-48
2022/08/30 04:54:06;;;;;;;7.00;6.30;;;14.50;99.90;;;;;;5263375;28;20183;-47
2022/08/30 04:56:37;;;;;;;6.23;5.70;;;14.50;99.90;;;;;;5260914;28;20681;-48
2022/08/30 04:59:08;;;;;;;6.80;6.27;;;14.60;99.90;;;;;;5255170;28;20182;-51
2022/08/30 05:01:39;;;;;;;7.40;6.70;;;14.60;99.90;;;;;;5263058;28;20708;-50
2022/08/30 05:04:09;;;;;;;7.40;6.10;;;14.70;99.90;;;;;;5251051;28;20185;-48
2022/08/30 05:06:40;;;;;;;7.23;6.50;;;14.70;99.90;;;;;;5249589;28;20440;-48
2022/08/30 05:09:11;;;;;;;7.63;6.93;;;14.80;99.90;;;;;;5240196;28;20208;-47
2022/08/30 05:11:42;;;;;;;7.47;6.77;;;14.80;99.90;;;;;;5250239;28;20280;-48
2022/08/30 05:14:13;;;;;;;7.97;7.33;;;14.90;99.90;;;;;;5249132;28;20464;-49
2022/08/30 05:16:45;;;;;;;7.40;6.90;;;15.00;99.90;;;;;;5253660;28;20570;-47
2022/08/30 05:19:15;;;;;;;8.20;6.90;;;15.00;99.90;;;;;;5263965;28;20445;-49
2022/08/30 05:21:46;;;;;;;7.63;6.70;;;15.10;99.90;;;;;;5262197;28;20436;-48
2022/08/30 05:24:16;;;;;;;7.53;6.93;;;15.10;99.90;;;;;;5264701;28;20576;-48
2022/08/30 05:26:47;;;;;;;8.77;7.00;;;15.00;99.90;;;;;;5259555;28;20551;-47
2022/08/30 05:29:18;;;;;;;7.50;6.70;;;15.10;99.90;;;;;;5265983;28;20201;-48
2022/08/30 05:31:48;;;;;;;6.60;6.03;;;15.20;99.90;;;;;;5264927;28;20212;-48
2022/08/30 05:34:19;;;;;;;7.17;6.47;;;15.20;99.90;;;;;;5256799;28;20186;-50
2022/08/30 05:36:50;;;;;;;9.40;7.63;;;15.30;99.90;;;;;;5246967;28;20278;-49
2022/08/30 05:39:20;;;;;;;7.90;7.20;;;15.40;99.90;;;;;;5252077;28;20522;-49
2022/08/30 05:41:56;;;;;;;8.73;7.60;;;15.50;99.90;;;;;;5255756;28;20206;-49
2022/08/30 05:44:26;;;;;;;7.40;6.70;;;15.40;99.90;;;;;;5258578;28;20210;-47
2022/08/30 05:46:57;;;;;;;10.23;7.10;;;15.50;99.90;;;;;;5250692;28;20473;-50
2022/08/30 05:49:27;;;;;;;6.83;6.20;;;15.60;99.90;;;;;;5250847;28;20343;-48
2022/08/30 05:51:58;;;;;;;6.47;5.90;;;15.70;99.90;;;;;;5243924;28;20220;-48
2022/08/30 05:54:29;;;;;;;6.77;6.17;;;15.90;99.90;;;;;;5252739;28;20182;-49
2022/08/30 05:56:59;;;;;;;13.13;6.57;;;16.10;99.90;;;;;;5255750;28;20262;-49
2022/08/30 05:59:30;;;;;;;5.63;5.23;;;16.10;99.90;;;;;;5251020;28;20210;-49
2022/08/30 06:02:01;;;;;;;8.30;6.13;;;16.30;99.90;;;;;;5254021;28;20205;-50
2022/08/30 06:04:31;;;;;;;6.10;5.57;;;16.50;99.90;;;;;;5250456;28;20614;-50
2022/08/30 06:07:02;;;;;;;6.27;5.77;;;16.60;99.90;;;;;;5256543;28;20186;-48
2022/08/30 06:09:33;;;;;;;4.50;4.10;;;16.60;99.90;;;;;;5250949;28;20194;-49
2022/08/30 06:12:04;;;;;;;5.63;5.07;;;16.70;99.90;;;;;;5265132;28;20545;-49
2022/08/30 06:14:34;;;;;;;5.20;4.90;;;16.90;99.90;;;;;;5255461;28;20196;-47
2022/08/30 06:17:05;;;;;;;7.20;6.60;;;17.00;99.90;;;;;;5249114;28;20209;-50
2022/08/30 06:19:36;;;;;;;6.63;6.13;;;17.20;99.90;;;;;;5258118;28;20216;-49
2022/08/30 06:22:06;;;;;;;6.40;5.80;;;17.20;99.90;;;;;;5267562;28;20201;-50
2022/08/30 06:24:38;;;;;;;5.87;5.40;;;17.30;99.90;;;;;;5254164;28;20193;-49
2022/08/30 06:27:09;;;;;;;7.20;6.53;;;17.30;99.90;;;;;;5256113;28;20210;-49
2022/08/30 06:29:40;;;;;;;7.20;6.60;;;17.40;99.90;;;;;;5260540;28;20436;-49
2022/08/30 06:32:11;;;;;;;8.00;7.20;;;17.40;99.90;;;;;;5263462;28;20447;-50
2022/08/30 06:34:41;;;;;;;6.40;5.90;;;17.40;99.90;;;;;;5258209;28;20178;-49
2022/08/30 06:37:12;;;;;;;7.27;6.57;;;17.40;99.90;;;;;;5255971;28;20213;-50
2022/08/30 06:39:42;;;;;;;6.10;5.60;;;17.40;99.90;;;;;;5250172;28;20189;-48
2022/08/30 06:42:13;;;;;;;6.77;5.33;;;17.50;99.90;;;;;;5250745;28;20201;-49
2022/08/30 06:44:44;;;;;;;5.63;5.20;;;17.70;99.90;;;;;;5251703;28;20189;-49
2022/08/30 06:47:15;;;;;;;8.37;7.57;;;17.90;99.90;;;;;;5261407;28;20193;-49
2022/08/30 06:49:45;;;;;;;8.37;6.00;;;18.00;99.90;;;;;;5257015;28;20429;-49
2022/08/30 06:52:16;;;;;;;7.97;7.13;;;18.10;99.90;;;;;;5251831;28;20208;-51
2022/08/30 06:54:46;;;;;;;7.67;6.83;;;18.20;99.90;;;;;;5253526;28;20194;-47
2022/08/30 06:57:17;;;;;;;6.47;5.87;;;18.20;99.90;;;;;;5252753;28;20206;-49
2022/08/30 06:59:47;;;;;;;7.43;6.40;;;18.20;99.90;;;;;;5251396;28;20178;-50
2022/08/30 07:02:18;;;;;;;7.20;6.57;;;18.20;99.90;;;;;;5264795;28;20188;-49
2022/08/30 07:04:49;;;;;;;10.97;7.17;;;18.30;99.90;;;;;;5255495;28;20202;-48
2022/08/30 07:07:19;;;;;;;7.80;7.10;;;18.40;99.90;;;;;;5269350;28;20193;-49
2022/08/30 07:09:50;;;;;;;9.13;7.33;;;18.40;99.90;;;;;;5250164;28;20650;-49
2022/08/30 07:12:21;;;;;;;11.07;7.90;;;18.30;99.90;;;;;;5252407;28;20185;-48
2022/08/30 07:14:51;;;;;;;11.20;6.60;;;18.20;99.90;;;;;;5251771;28;20186;-49
2022/08/30 07:20:12;;;;;;;9.33;8.13;;;18.50;99.90;;;;;;5258455;28;20202;-48
2022/08/30 07:22:42;;;;;;;8.53;7.70;;;18.60;99.90;;;;;;5259617;28;20459;-53
2022/08/30 07:25:14;;;;;;;8.03;7.17;;;18.90;99.90;;;;;;5262503;28;20436;-48
2022/08/30 07:27:45;;;;;;;9.13;8.27;;;19.00;99.90;;;;;;5249471;28;20189;-48
2022/08/30 07:30:17;;;;;;;11.63;8.10;;;18.90;99.90;;;;;;5250312;28;20456;-49
2022/08/30 07:32:48;;;;;;;8.83;7.67;;;18.80;99.90;;;;;;5255007;28;20264;-50
2022/08/30 07:35:18;;;;;;;8.50;7.47;;;18.50;99.90;;;;;;5252189;28;20547;-50
2022/08/30 07:37:49;;;;;;;9.37;8.37;;;18.30;99.90;;;;;;5254512;28;20581;-49
2022/08/30 07:40:20;;;;;;;9.00;7.70;;;18.40;99.90;;;;;;5255303;28;20255;-52
2022/08/30 07:42:51;;;;;;;15.00;8.53;;;18.50;99.90;;;;;;5252094;28;20178;-48
2022/08/30 07:45:21;;;;;;;11.10;8.20;;;18.30;99.90;;;;;;5252714;28;20205;-48
2022/08/30 07:47:52;;;;;;;8.97;8.10;;;18.20;99.90;;;;;;5252877;28;20239;-48
2022/08/30 07:50:23;;;;;;;9.80;8.60;;;18.20;99.90;;;;;;5256467;28;20253;-48
2022/08/30 07:52:53;;;;;;;8.80;7.40;;;18.20;99.90;;;;;;5263727;28;20289;-51
2022/08/30 07:55:24;;;;;;;8.17;7.37;;;18.40;99.90;;;;;;5249903;28;20280;-50
2022/08/30 07:57:55;;;;;;;7.73;7.03;;;18.50;99.90;;;;;;5255491;28;20620;-48
2022/08/30 08:00:26;;;;;;;6.00;5.40;;;18.60;99.90;;;;;;5247316;28;20448;-48
2022/08/30 08:02:56;;;;;;;12.13;8.13;;;18.80;99.90;;;;;;5248448;28;20197;-48
2022/08/30 08:05:27;;;;;;;8.83;7.03;;;18.90;99.90;;;;;;5249503;28;20209;-49
2022/08/30 08:07:57;;;;;;;7.67;6.27;;;18.90;99.90;;;;;;5260747;28;20523;-48
2022/08/30 08:10:28;;;;;;;6.70;6.10;;;18.90;99.90;;;;;;5247131;28;20295;-48
2022/08/30 08:12:59;;;;;;;5.13;4.70;;;18.90;99.90;;;;;;5256614;28;20190;-48
2022/08/30 08:15:32;;;;;;;4.90;4.50;;;19.00;99.90;;;;;;5247589;28;20186;-48
2022/08/30 08:18:03;;;;;;;6.73;4.10;;;19.10;99.90;;;;;;5254720;28;20460;-48
2022/08/30 08:20:35;;;;;;;3.97;3.70;;;19.30;99.90;;;;;;5249045;28;20508;-48
2022/08/30 08:23:06;;;;;;;4.30;3.90;;;19.30;99.90;;;;;;5247238;28;20437;-49
2022/08/30 08:25:39;;;;;;;4.30;3.90;;;19.40;99.90;;;;;;5248898;28;20431;-48
2022/08/30 08:28:10;;;;;;;4.00;3.70;;;19.60;99.90;;;;;;5256704;28;20426;-49
2022/08/30 08:30:40;;;;;;;4.30;4.00;;;20.30;99.90;;;;;;5250383;28;20831;-49
2022/08/30 08:33:12;;;;;;;3.63;3.27;;;20.80;99.90;;;;;;5254796;28;20543;-49
2022/08/30 08:35:44;;;;;;;3.97;2.80;;;20.90;99.90;;;;;;5249273;28;20186;-48
2022/08/30 08:38:15;;;;;;;3.47;3.07;;;20.80;99.90;;;;;;5247329;28;20621;-48
2022/08/30 08:41:16;;;;;;;2.80;2.70;;;20.90;99.90;;;;;;5252162;28;20535;-48
2022/08/30 08:43:47;;;;;;;2.63;2.53;;;20.60;99.90;;;;;;5249823;28;20630;-48
2022/08/30 08:46:32;;;;;;;3.27;2.73;;;20.40;99.90;;;;;;5247080;28;20417;-49
2022/08/30 08:49:05;;;;;;;1.90;1.90;;;20.10;99.90;;;;;;5266364;28;20214;-51
2022/08/30 08:54:51;;;;;;;1.90;1.80;;;19.60;99.90;;;;;;5247897;28;20437;-50
2022/08/30 08:57:22;;;;;;;2.20;2.10;;;19.70;99.90;;;;;;5252989;28;20487;-49
2022/08/30 08:59:53;;;;;;;2.53;2.20;;;19.70;99.90;;;;;;5258075;28;20441;-50
2022/08/30 09:02:27;;;;;;;2.27;2.07;;;19.40;99.90;;;;;;5256362;28;20634;-50
2022/08/30 09:04:59;;;;;;;2.23;2.23;;;19.30;99.90;;;;;;5254940;28;20427;-51
2022/08/30 09:07:36;;;;;;;1.43;1.43;;;19.50;99.90;;;;;;5263447;28;20419;-50
2022/08/30 09:10:08;;;;;;;1.70;1.60;;;19.60;99.90;;;;;;5261175;28;20954;-48
2022/08/30 09:12:38;;;;;;;1.77;1.77;;;19.70;99.90;;;;;;5258112;28;20800;-49
2022/08/30 09:15:19;;;;;;;3.03;1.63;;;19.80;99.90;;;;;;5266081;28;20436;-50
2022/08/30 09:17:59;;;;;;;1.43;1.33;;;19.90;99.90;;;;;;5263070;28;20514;-50
2022/08/30 09:20:47;;;;;;;1.23;1.23;;;20.00;99.90;;;;;;5259149;28;20452;-48
2022/08/30 09:23:26;;;;;;;1.30;1.20;;;19.90;99.90;;;;;;5256976;28;20432;-49
2022/08/30 09:26:05;;;;;;;1.10;1.10;;;19.90;99.90;;;;;;5260765;28;20823;-50
2022/08/30 09:28:50;;;;;;;2.30;1.23;;;20.10;99.90;;;;;;5269578;28;20883;-50
2022/08/30 09:31:25;;;;;;;1.60;1.30;;;20.00;99.90;;;;;;5257139;28;20534;-49
2022/08/30 09:34:04;;;;;;;1.80;0.93;;;20.10;99.90;;;;;;5265201;28;20430;-48
2022/08/30 09:36:50;;;;;;;0.70;0.70;;;20.20;99.90;;;;;;5251883;28;20975;-49
2022/08/30 09:39:36;;;;;;;2.70;1.60;;;20.50;99.90;;;;;;5253152;28;20505;-48
2022/08/30 09:42:19;;;;;;;0.83;0.83;;;20.50;99.90;;;;;;5257262;28;20455;-48
2022/08/30 09:44:52;;;;;;;0.63;0.63;;;20.50;99.90;;;;;;5261102;28;20485;-47
2022/08/30 09:47:28;;;;;;;2.40;0.97;;;20.60;99.90;;;;;;5256703;28;20427;-49
2022/08/30 09:53:08;;;;;;;1.50;0.73;;;20.80;99.90;;;;;;5246619;28;20452;-50
2022/08/30 09:55:53;;;;;;;0.87;0.87;;;20.70;99.90;;;;;;5246467;28;20551;-49
2022/08/30 09:58:52;;;;;;;1.40;1.30;;;20.70;99.90;;;;;;5263775;28;20552;-49
2022/08/30 10:01:25;;;;;;;1.70;0.90;;;20.70;99.90;;;;;;5249043;28;20433;-50
2022/08/30 10:04:05;;;;;;;1.20;0.87;;;20.90;99.90;;;;;;5251054;28;20420;-51
2022/08/30 10:06:37;;;;;;;1.10;1.10;;;21.10;99.90;;;;;;5245608;28;20428;-50
2022/08/30 10:09:24;;;;;;;1.90;1.00;;;21.00;99.90;;;;;;5248066;28;20452;-51
2022/08/30 10:12:17;;;;;;;2.97;1.00;;;21.00;99.90;;;;;;5243589;28;20475;-51
2022/08/30 10:14:50;;;;;;;0.70;0.70;;;21.00;99.90;;;;;;5248247;28;20800;-49
2022/08/30 10:17:40;;;;;;;1.13;0.97;;;21.20;99.90;;;;;;5245150;28;20487;-51
2022/08/30 10:20:14;;;;;;;1.00;1.00;;;21.50;99.90;;;;;;5245841;28;20479;-54
2022/08/30 10:22:50;;;;;;;1.00;1.00;;;21.50;99.90;;;;;;5244688;28;20837;-51
2022/08/30 10:25:35;;;;;;;1.37;0.93;;;21.70;99.90;;;;;;5245989;28;20411;-51
2022/08/30 10:28:34;;;;;;;0.60;0.60;;;21.60;99.90;;;;;;5242952;28;20495;-50
2022/08/30 10:31:31;;;;;;;2.70;1.00;;;21.30;99.90;;;;;;5238811;28;20484;-50
2022/08/30 10:34:08;;;;;;;0.70;0.70;;;21.10;99.90;;;;;;5246165;28;20444;-50
2022/08/30 10:36:54;;;;;;;0.50;0.50;;;21.10;99.90;;;;;;5246961;28;20606;-51
2022/08/30 10:39:31;;;;;;;2.70;1.33;;;21.40;99.90;;;;;;5247151;28;20451;-51
2022/08/30 10:42:17;;;;;;;0.60;0.60;;;21.90;99.90;;;;;;5244962;28;20505;-52
2022/08/30 10:45:09;;;;;;;2.67;1.00;;;22.20;99.90;;;;;;5239710;28;20514;-51
2022/08/30 10:48:02;;;;;;;1.20;0.90;;;22.10;99.90;;;;;;5242799;28;20840;-51
2022/08/30 10:50:39;;;;;;;0.60;0.60;;;22.10;99.90;;;;;;5234339;28;20626;-52
2022/08/30 10:53:14;;;;;;;0.93;0.93;;;22.40;99.40;;;;;;5246654;28;20601;-51
2022/08/30 10:56:02;;;;;;;5.37;0.90;;;22.30;99.10;;;;;;5248749;28;20416;-51
2022/08/30 10:58:35;;;;;;;0.90;0.90;;;22.50;97.70;;;;;;5247874;28;20513;-54
2022/08/30 11:01:08;;;;;;;1.00;0.90;;;22.60;97.50;;;;;;5244744;28;20450;-52
2022/08/30 11:04:05;;;;;;;0.97;0.97;;;22.60;99.30;;;;;;5244367;28;20432;-52
2022/08/30 11:06:49;;;;;;;0.90;0.90;;;22.40;99.90;;;;;;5236054;28;20437;-53
2022/08/30 11:09:46;;;;;;;0.97;0.97;;;22.50;99.90;;;;;;5239715;28;20805;-51
2022/08/30 11:12:54;;;;;;;1.00;1.00;;;22.60;99.90;;;;;;5234864;28;20452;-51
2022/08/30 11:15:30;;;;;;;0.80;0.80;;;22.70;99.90;;;;;;5170293;28;20488;-50
2022/08/30 11:18:09;;;;;;;0.83;0.83;;;22.70;99.90;;;;;;5231930;28;20478;-50
2022/08/30 11:20:51;;;;;;;1.30;1.20;;;22.60;99.90;;;;;;5239805;28;20452;-51
2022/08/30 11:23:34;;;;;;;0.90;0.90;;;22.60;99.90;;;;;;5244960;28;20448;-50
2022/08/30 11:26:09;;;;;;;1.57;1.47;;;22.60;99.90;;;;;;5248200;28;20452;-49
2022/08/30 11:28:39;;;;;;;1.13;1.03;;;22.50;99.90;;;;;;5244036;28;20894;-51
2022/08/30 11:31:34;;;;;;;0.70;0.70;;;22.50;99.90;;;;;;5240214;28;20479;-52
2022/08/30 11:34:06;;;;;;;1.13;1.03;;;22.60;99.90;;;;;;5253277;28;20177;-50
2022/08/30 11:36:40;;;;;;;1.30;1.23;;;22.60;99.90;;;;;;5249074;28;20460;-52
2022/08/30 11:39:46;;;;;;;1.90;1.80;;;22.60;99.60;;;;;;5241951;28;20966;-50
2022/08/30 11:42:50;;;;;;;1.17;0.90;;;22.90;98.70;;;;;;5243231;28;20460;-50
2022/08/30 11:45:24;;;;;;;0.90;0.90;;;23.10;98.20;;;;;;5192253;28;20440;-49
2022/08/30 11:48:00;;;;;;;2.37;1.10;;;23.00;96.80;;;;;;5244543;28;20444;-51
2022/08/30 11:51:01;;;;;;;2.50;0.90;;;22.90;96.20;;;;;;5244387;28;20461;-50
2022/08/30 11:53:48;;;;;;;1.10;1.10;;;22.90;95.90;;;;;;5242255;28;20516;-50
2022/08/30 11:56:46;;;;;;;0.70;0.43;;;23.00;95.10;;;;;;5245213;28;20417;-53
2022/08/30 11:59:48;;;;;;;0.70;0.70;;;23.00;95.10;;;;;;5209598;28;20539;-52
2022/08/30 12:02:55;;;;;;;1.50;0.97;;;23.30;94.10;;;;;;5241127;28;20423;-52
2022/08/30 12:05:51;;;;;;;0.90;0.90;;;23.10;93.10;;;;;;5247027;28;20425;-53
2022/08/30 12:08:34;;;;;;;1.30;1.27;;;23.10;93.90;;;;;;5238476;28;21000;-52
2022/08/30 12:11:08;;;;;;;1.00;1.00;;;23.10;93.20;;;;;;5248016;28;20440;-50
2022/08/30 12:13:42;;;;;;;0.80;0.80;;;23.10;93.10;;;;;;5248229;28;20857;-50
2022/08/30 12:16:15;;;;;;;0.87;0.87;;;22.90;90.50;;;;;;5247578;28;20577;-50
2022/08/30 12:18:58;;;;;;;1.53;1.27;;;22.60;91.00;;;;;;5242596;28;20441;-50
2022/08/30 12:21:32;;;;;;;0.90;0.90;;;22.60;92.20;;;;;;5246148;28;20510;-51
2022/08/30 12:24:06;;;;;;;0.80;0.80;;;22.70;93.00;;;;;;5246104;28;20501;-49
2022/08/30 12:26:40;;;;;;;2.17;0.60;;;22.60;93.80;;;;;;5247129;28;20467;-50
2022/08/30 12:29:26;;;;;;;1.07;1.03;;;22.60;93.80;;;;;;5240881;28;20412;-51
2022/08/30 12:32:13;;;;;;;0.90;0.90;;;22.60;94.30;;;;;;5244285;28;20443;-50
2022/08/30 12:34:44;;;;;;;2.17;2.07;;;22.60;94.70;;;;;;5254206;28;20511;-52
2022/08/30 12:37:35;;;;;;;0.97;0.97;;;22.70;94.10;;;;;;5244490;28;20551;-51
2022/08/30 12:40:14;;;;;;;1.33;0.90;;;22.80;93.60;;;;;;5254372;28;20174;-49
2022/08/30 12:43:00;;;;;;;0.90;0.90;;;22.70;94.20;;;;;;5244998;28;20428;-51
2022/08/30 12:45:52;;;;;;;1.00;1.00;;;22.70;94.20;;;;;;5243896;28;20833;-50
2022/08/30 12:48:23;;;;;;;1.20;1.20;;;22.70;93.10;;;;;;5238360;28;20527;-52
2022/08/30 12:50:57;;;;;;;1.33;1.20;;;22.80;93.00;;;;;;5227882;28;20560;-51
2022/08/30 12:53:30;;;;;;;1.30;1.30;;;22.80;92.30;;;;;;5244354;28;20186;-50
2022/08/30 12:56:08;;;;;;;1.87;1.70;;;22.80;92.20;;;;;;5241701;28;20857;-50
2022/08/30 12:58:48;;;;;;;1.50;1.40;;;23.00;91.40;;;;;;5246681;28;20787;-50
2022/08/30 13:01:31;;;;;;;1.77;1.73;;;23.00;91.50;;;;;;5251122;28;20458;-50
2022/08/30 13:04:19;;;;;;;2.50;2.30;;;23.10;91.50;;;;;;5244560;28;20428;-50
2022/08/30 13:06:57;;;;;;;4.00;1.77;;;23.20;90.30;;;;;;5247736;28;20429;-51
2022/08/30 13:09:35;;;;;;;4.10;3.77;;;23.10;91.30;;;;;;5224808;28;20424;-51
2022/08/30 13:12:21;;;;;;;3.47;2.23;;;23.30;91.40;;;;;;5246639;28;20480;-51
2022/08/30 13:14:52;;;;;;;1.47;1.40;;;23.60;90.60;;;;;;5244480;28;20781;-51
2022/08/30 13:17:27;;;;;;;1.40;1.40;;;23.50;90.00;;;;;;5246830;28;20838;-52
2022/08/30 13:20:04;;;;;;;3.07;1.53;;;23.50;90.50;;;;;;5244286;28;20465;-52
2022/08/30 13:22:37;;;;;;;7.47;1.70;;;23.50;90.40;;;;;;5244326;28;20831;-50
2022/08/30 13:25:10;;;;;;;3.20;2.70;;;23.60;91.00;;;;;;5246029;28;20432;-51
2022/08/30 13:27:40;;;;;;;2.13;2.03;;;23.50;89.90;;;;;;5244479;28;20440;-50
2022/08/30 13:30:15;;;;;;;5.07;2.80;;;23.30;89.80;;;;;;5246935;28;20439;-50
2022/08/30 13:32:45;;;;;;;2.63;2.40;;;23.20;91.00;;;;;;5245148;28;20182;-50